Terminal Aerodrome Forecast
Issued by NWS Chicago, IL

Home | Current Version | Previous Version | Text Only | Print | Product List | Glossary Off
Versions: 1 2 3 4 5 6 7 8 9 10 11 12 13 14 15 16 17 18 19 20 21 22 23 24 25 26 27 28

000
FTUS43 KLOT 232002 AAB
TAFRFD
TAF AMD
KRFD 232002Z 2320/2418 18006KT P6SM VCTS BKN035CB BKN120
     FM232200 09007KT P6SM BKN040 BKN100
     FM240000 11004KT P6SM VCTS BKN040CB BKN100
      TEMPO 2400/2402 2SM TSRA OVC015CB
     FM240200 16007KT P6SM BKN035 BKN100
     FM240900 18006KT 2SM TSRA OVC015CB
     FM241200 20010G16KT P6SM BKN030=

USA.gov is the U.S. government's official web portal to all federal, state and local government web resources and services.